Time;durP1;ratioP1;P1;durP2;ratioP2;P2;SDS_P1;SDS_P2;PMS_P1;PMS_P2;Temp;Humidity;BMP_temperature;BMP_pressure;BME280_temperature;BME280_humidity;BME280_pressure;Samples;Min_cycle;Max_cycle;Signal;HPM_P1;HPM_P2
2022/12/07 00:00:14;;;;;;;6.10;4.03;;;4.00;99.90;;;;;;5004353;28;20209;-65
2022/12/07 00:02:43;;;;;;;7.37;4.47;;;4.10;99.90;;;;;;5015945;28;20227;-65
2022/12/07 00:05:09;;;;;;;8.47;4.77;;;4.00;99.90;;;;;;5021984;28;21016;-65
2022/12/07 00:07:36;;;;;;;6.93;4.43;;;4.00;99.90;;;;;;5025092;28;20202;-65
2022/12/07 00:10:03;;;;;;;7.67;4.73;;;3.90;99.90;;;;;;5014578;28;20209;-64
2022/12/07 00:12:30;;;;;;;7.90;4.10;;;4.00;99.90;;;;;;4998821;28;20213;-65
2022/12/07 00:14:57;;;;;;;8.77;4.20;;;4.00;99.90;;;;;;5013724;28;20208;-65
2022/12/07 00:17:24;;;;;;;6.60;4.03;;;4.00;99.90;;;;;;5020367;28;20205;-65
2022/12/07 00:19:52;;;;;;;8.07;3.33;;;4.00;99.90;;;;;;5015670;28;20248;-64
2022/12/07 00:22:18;;;;;;;7.07;4.00;;;4.10;99.90;;;;;;5020976;28;20595;-65
2022/12/07 00:24:45;;;;;;;6.40;3.97;;;4.10;99.90;;;;;;5025749;28;20865;-65
2022/12/07 00:27:12;;;;;;;8.00;3.77;;;;;;;;;;4983880;28;20221;-65
2022/12/07 00:29:39;;;;;;;7.70;3.87;;;4.00;99.90;;;;;;5019696;28;20205;-64
2022/12/07 00:32:06;;;;;;;6.33;3.60;;;4.00;99.90;;;;;;5024068;28;20208;-65
2022/12/07 00:34:33;;;;;;;8.80;3.63;;;4.00;99.90;;;;;;5018955;28;20222;-64
2022/12/07 00:37:01;;;;;;;6.90;3.80;;;4.00;99.90;;;;;;5023758;28;20204;-64
2022/12/07 00:39:28;;;;;;;8.87;4.10;;;4.00;99.90;;;;;;5023481;28;20202;-65
2022/12/07 00:41:55;;;;;;;7.10;4.23;;;4.00;99.90;;;;;;5011558;28;20814;-64
2022/12/07 00:44:21;;;;;;;4.37;3.30;;;4.10;99.90;;;;;;4987537;28;20646;-65
2022/12/07 00:46:48;;;;;;;7.17;3.37;;;4.00;99.90;;;;;;5015163;28;20205;-65
2022/12/07 00:49:15;;;;;;;4.60;3.30;;;3.90;99.90;;;;;;5013816;28;20230;-65
2022/12/07 00:51:42;;;;;;;10.93;3.90;;;4.00;99.90;;;;;;5022692;28;20199;-65
2022/12/07 00:54:10;;;;;;;9.67;3.17;;;4.00;99.90;;;;;;5020753;28;20213;-65
2022/12/07 00:56:37;;;;;;;3.40;2.37;;;4.00;99.90;;;;;;5009811;28;20198;-65
2022/12/07 00:59:05;;;;;;;3.97;2.60;;;4.00;99.90;;;;;;5004958;28;20208;-65
2022/12/07 01:01:34;;;;;;;6.00;2.53;;;4.10;99.90;;;;;;4999468;28;20233;-65
2022/12/07 01:04:01;;;;;;;7.17;2.23;;;4.20;99.90;;;;;;5026091;28;20229;-65
2022/12/07 01:06:29;;;;;;;3.97;1.80;;;4.20;99.90;;;;;;4999552;28;20209;-65
2022/12/07 01:08:56;;;;;;;5.77;1.93;;;4.10;99.90;;;;;;5022677;28;20675;-65
2022/12/07 01:11:27;;;;;;;1.83;1.00;;;4.30;99.90;;;;;;5018191;28;20201;-65
2022/12/07 01:13:55;;;;;;;4.60;1.20;;;4.20;99.90;;;;;;5019869;28;20201;-65
2022/12/07 01:16:23;;;;;;;4.73;1.40;;;4.20;99.90;;;;;;4985946;28;20213;-64
2022/12/07 01:18:53;;;;;;;2.37;0.80;;;4.10;99.90;;;;;;5025369;28;20229;-65
2022/12/07 01:21:21;;;;;;;3.40;0.97;;;4.20;99.90;;;;;;5011592;28;20201;-65
2022/12/07 01:23:48;;;;;;;1.07;0.80;;;4.10;99.90;;;;;;5027450;28;20252;-65
2022/12/07 01:26:17;;;;;;;1.17;0.87;;;4.00;99.90;;;;;;5025638;28;20216;-65
2022/12/07 01:28:45;;;;;;;1.03;0.53;;;3.90;99.90;;;;;;5003412;28;20585;-65
2022/12/07 01:31:15;;;;;;;2.63;1.00;;;3.90;99.90;;;;;;4995793;28;20214;-65
2022/12/07 01:33:43;;;;;;;1.33;1.07;;;3.80;99.90;;;;;;5015285;28;20209;-64
2022/12/07 01:36:16;;;;;;;1.33;0.80;;;3.70;99.90;;;;;;5026682;28;20197;-64
2022/12/07 01:38:44;;;;;;;1.27;0.87;;;3.60;99.90;;;;;;5011905;28;20836;-65
2022/12/07 01:41:11;;;;;;;2.40;1.07;;;3.70;99.90;;;;;;5023453;28;20600;-64
2022/12/07 01:44:03;;;;;;;3.13;1.30;;;3.60;99.90;;;;;;5011103;28;20235;-65
2022/12/07 01:46:31;;;;;;;2.63;1.20;;;3.50;99.90;;;;;;4988344;28;20209;-65
2022/12/07 01:48:57;;;;;;;1.77;1.07;;;3.50;99.90;;;;;;5016782;28;20213;-64
2022/12/07 01:51:24;;;;;;;2.90;1.30;;;3.40;99.90;;;;;;5017745;28;20204;-65
2022/12/07 01:53:51;;;;;;;2.20;1.13;;;3.40;99.90;;;;;;5015235;28;20201;-64
2022/12/07 01:56:21;;;;;;;15.67;2.63;;;3.30;99.90;;;;;;5021620;28;20198;-64
2022/12/07 01:58:49;;;;;;;1.60;1.47;;;3.30;99.90;;;;;;5005088;28;20205;-64
2022/12/07 02:01:19;;;;;;;5.10;1.63;;;3.30;99.90;;;;;;5004427;28;20201;-65
2022/12/07 02:03:47;;;;;;;3.57;2.37;;;3.40;99.90;;;;;;4999725;28;20819;-65
2022/12/07 02:06:20;;;;;;;3.80;1.50;;;3.40;99.90;;;;;;5022616;28;20729;-64
2022/12/07 02:08:48;;;;;;;5.00;1.80;;;3.40;99.90;;;;;;5011906;28;21047;-65
2022/12/07 02:11:15;;;;;;;3.87;2.27;;;3.40;99.90;;;;;;5024273;28;20198;-64
2022/12/07 02:13:44;;;;;;;10.50;1.93;;;3.50;99.90;;;;;;5025792;28;20982;-65
2022/12/07 02:16:24;;;;;;;4.10;2.10;;;3.50;99.90;;;;;;5013597;28;20210;-65
2022/12/07 02:19:05;;;;;;;4.40;1.57;;;3.50;99.90;;;;;;4995158;28;20286;-65
2022/12/07 02:21:41;;;;;;;8.40;1.53;;;3.50;99.90;;;;;;5019026;28;20241;-65
2022/12/07 02:24:25;;;;;;;3.30;1.77;;;3.50;99.90;;;;;;5006704;28;20232;-64
2022/12/07 02:27:11;;;;;;;4.90;1.63;;;3.60;99.90;;;;;;5026373;28;20201;-65
2022/12/07 02:29:46;;;;;;;3.93;1.60;;;3.50;99.90;;;;;;5010121;28;20214;-64
2022/12/07 02:32:17;;;;;;;2.57;1.30;;;3.60;99.90;;;;;;5024963;28;20203;-64
2022/12/07 02:34:50;;;;;;;2.90;1.10;;;3.70;99.90;;;;;;5009719;28;20205;-64
2022/12/07 02:37:26;;;;;;;2.83;1.20;;;3.80;99.90;;;;;;5021497;28;20435;-64
2022/12/07 02:39:58;;;;;;;2.60;1.07;;;3.90;99.90;;;;;;5011431;28;20740;-64
2022/12/07 02:42:32;;;;;;;1.73;0.73;;;3.90;99.90;;;;;;5023416;28;20232;-64
2022/12/07 02:45:02;;;;;;;1.40;0.93;;;4.00;99.90;;;;;;5023832;28;20196;-64
2022/12/07 02:47:30;;;;;;;0.80;0.70;;;3.90;99.90;;;;;;5009099;28;20209;-65
2022/12/07 02:49:57;;;;;;;2.07;0.77;;;3.90;99.90;;;;;;4999600;28;20223;-64
2022/12/07 02:52:24;;;;;;;5.30;1.13;;;4.00;99.90;;;;;;5018603;28;20291;-65
2022/12/07 02:54:50;;;;;;;1.40;0.73;;;4.00;99.90;;;;;;5015624;28;20208;-64
2022/12/07 02:57:36;;;;;;;4.50;1.37;;;4.00;99.90;;;;;;5012456;28;20207;-65
2022/12/07 03:00:07;;;;;;;1.90;0.80;;;4.10;99.90;;;;;;5023634;28;20197;-64
2022/12/07 03:02:47;;;;;;;1.60;0.60;;;4.10;99.90;;;;;;5008510;28;20225;-65
2022/12/07 03:05:30;;;;;;;3.00;0.83;;;4.10;99.90;;;;;;4993646;28;20227;-64
2022/12/07 03:08:02;;;;;;;7.10;1.13;;;4.10;99.90;;;;;;5018741;28;20212;-65
2022/12/07 03:10:36;;;;;;;1.13;0.70;;;4.10;99.90;;;;;;5009800;28;20205;-65
2022/12/07 03:13:07;;;;;;;0.60;0.50;;;4.10;99.90;;;;;;5028866;28;20216;-65
2022/12/07 03:15:44;;;;;;;3.97;0.90;;;4.10;99.90;;;;;;5020904;28;20210;-65
2022/12/07 03:18:13;;;;;;;1.43;0.80;;;4.10;99.90;;;;;;5012612;28;20223;-64
2022/12/07 03:20:41;;;;;;;6.53;0.87;;;4.20;99.90;;;;;;4992604;28;20202;-65
2022/12/07 03:23:11;;;;;;;2.83;1.33;;;4.20;99.90;;;;;;5013001;28;20233;-65
2022/12/07 03:25:41;;;;;;;2.87;1.10;;;4.20;99.90;;;;;;5009893;28;20213;-65
2022/12/07 03:28:09;;;;;;;3.70;1.13;;;4.20;99.90;;;;;;5026599;28;20202;-64
2022/12/07 03:30:43;;;;;;;3.97;1.60;;;4.10;99.90;;;;;;5007907;28;20201;-65
2022/12/07 03:33:14;;;;;;;6.00;1.50;;;4.10;99.90;;;;;;5008871;28;20217;-65
2022/12/07 03:35:44;;;;;;;2.93;1.40;;;4.20;99.90;;;;;;4995020;28;20209;-65
2022/12/07 03:38:18;;;;;;;5.03;1.33;;;4.10;99.90;;;;;;5023505;28;20213;-65
2022/12/07 03:40:50;;;;;;;4.83;1.23;;;4.10;99.90;;;;;;5014528;28;20211;-65
2022/12/07 03:43:18;;;;;;;3.27;1.20;;;4.10;99.90;;;;;;5022805;28;20291;-65
2022/12/07 03:46:00;;;;;;;3.03;1.10;;;4.00;99.90;;;;;;5029187;28;20206;-65
2022/12/07 03:48:33;;;;;;;2.87;1.13;;;4.10;99.90;;;;;;5012526;28;20675;-65
2022/12/07 03:51:06;;;;;;;3.10;1.00;;;4.00;99.90;;;;;;4991107;28;20237;-65
2022/12/07 03:53:38;;;;;;;3.23;1.03;;;4.00;99.90;;;;;;5023881;28;20202;-65
2022/12/07 03:56:06;;;;;;;3.87;1.50;;;3.90;99.90;;;;;;5013902;28;20198;-65
2022/12/07 03:58:34;;;;;;;4.77;1.57;;;4.00;99.90;;;;;;5022048;28;20198;-65
2022/12/07 04:01:02;;;;;;;2.97;0.90;;;4.00;99.90;;;;;;5022685;28;20216;-64
2022/12/07 04:03:29;;;;;;;3.80;1.40;;;4.00;99.90;;;;;;5008629;28;20228;-65
2022/12/07 04:05:56;;;;;;;3.00;1.00;;;4.00;99.90;;;;;;4998598;28;20224;-65
2022/12/07 04:08:22;;;;;;;3.63;1.30;;;4.00;99.90;;;;;;5020495;28;20816;-64
2022/12/07 04:10:49;;;;;;;3.03;1.07;;;4.00;99.90;;;;;;5025266;28;22119;-65
2022/12/07 04:13:16;;;;;;;4.03;1.40;;;4.10;99.90;;;;;;5013799;28;20205;-65
2022/12/07 04:15:48;;;;;;;3.43;0.93;;;4.00;99.90;;;;;;5022857;28;20201;-65
2022/12/07 04:18:16;;;;;;;5.27;1.43;;;4.00;99.90;;;;;;5011271;28;20198;-65
2022/12/07 04:20:43;;;;;;;2.40;1.03;;;4.10;99.90;;;;;;4996482;28;20209;-64
2022/12/07 04:23:10;;;;;;;2.13;1.10;;;4.00;99.90;;;;;;5028182;28;20212;-65
2022/12/07 04:25:37;;;;;;;3.37;1.00;;;3.90;99.90;;;;;;5017979;28;20202;-65
2022/12/07 04:28:03;;;;;;;4.17;1.23;;;3.90;99.90;;;;;;5014107;28;20198;-65
2022/12/07 04:30:30;;;;;;;5.20;1.27;;;3.90;99.90;;;;;;5022255;28;20222;-65
2022/12/07 04:32:57;;;;;;;3.27;1.03;;;4.10;99.90;;;;;;5024013;28;20209;-64
2022/12/07 04:35:25;;;;;;;4.70;1.47;;;3.90;99.90;;;;;;5007659;28;20203;-65
2022/12/07 04:37:52;;;;;;;5.63;1.33;;;4.00;99.90;;;;;;4995959;28;20242;-65
2022/12/07 04:40:19;;;;;;;3.03;1.40;;;3.90;99.90;;;;;;5025690;28;20208;-64
2022/12/07 04:42:46;;;;;;;5.57;1.40;;;3.80;99.90;;;;;;5013563;28;20246;-65
2022/12/07 04:45:13;;;;;;;4.47;1.20;;;3.80;99.90;;;;;;5017210;28;20225;-65
2022/12/07 04:47:39;;;;;;;1.33;1.20;;;3.70;99.90;;;;;;5011090;28;20200;-65
2022/12/07 04:50:08;;;;;;;6.60;1.40;;;3.70;99.90;;;;;;5001006;28;20236;-64
2022/12/07 04:52:36;;;;;;;3.40;1.40;;;3.70;99.90;;;;;;4971884;28;20729;-65
2022/12/07 04:55:03;;;;;;;3.40;1.43;;;3.60;99.90;;;;;;5021196;28;20231;-65
2022/12/07 04:57:29;;;;;;;4.43;1.40;;;3.50;99.90;;;;;;5010906;28;21727;-65
2022/12/07 04:59:56;;;;;;;3.53;1.53;;;3.50;99.90;;;;;;5030091;28;20197;-65
2022/12/07 05:02:23;;;;;;;2.57;1.40;;;3.60;99.90;;;;;;5017041;28;20197;-65
2022/12/07 05:04:50;;;;;;;3.83;1.40;;;3.60;99.90;;;;;;5025747;28;20836;-65
2022/12/07 05:07:16;;;;;;;4.47;1.40;;;3.50;99.90;;;;;;4994473;28;21678;-66
2022/12/07 05:09:45;;;;;;;4.53;1.67;;;3.50;99.90;;;;;;5018241;28;20205;-65
2022/12/07 05:12:11;;;;;;;3.87;1.63;;;3.50;99.90;;;;;;5010165;28;21021;-66
2022/12/07 05:14:38;;;;;;;6.00;1.50;;;3.50;99.90;;;;;;5017248;28;20211;-65
2022/12/07 05:17:05;;;;;;;5.50;1.40;;;3.50;99.90;;;;;;5026657;28;20202;-65
2022/12/07 05:19:32;;;;;;;5.90;1.73;;;3.50;99.90;;;;;;5012938;28;20233;-66
2022/12/07 05:21:58;;;;;;;3.10;1.10;;;3.50;99.90;;;;;;5002298;28;20228;-66
2022/12/07 05:24:25;;;;;;;5.20;1.43;;;3.60;99.90;;;;;;4997307;28;20218;-65
2022/12/07 05:26:53;;;;;;;1.87;1.10;;;3.50;99.90;;;;;;5012075;28;20223;-65
2022/12/07 05:29:20;;;;;;;5.70;1.10;;;3.50;99.90;;;;;;5005161;28;20216;-65
2022/12/07 05:31:47;;;;;;;2.87;1.30;;;3.50;99.90;;;;;;5017354;28;20214;-65
2022/12/07 05:34:14;;;;;;;1.40;0.77;;;3.60;99.90;;;;;;5016406;28;20206;-66
2022/12/07 05:36:41;;;;;;;5.03;1.10;;;3.60;99.90;;;;;;5024086;28;20200;-65
2022/12/07 05:39:08;;;;;;;5.33;0.87;;;3.60;99.90;;;;;;5000059;28;20232;-65
2022/12/07 05:44:21;;;;;;;1.53;1.03;;;3.60;99.90;;;;;;5001167;28;20350;-65
2022/12/07 05:46:48;;;;;;;4.10;1.00;;;3.60;99.90;;;;;;5014249;28;20218;-65
2022/12/07 05:49:15;;;;;;;3.93;0.90;;;3.70;99.90;;;;;;5024128;28;20193;-65
2022/12/07 05:51:41;;;;;;;2.37;1.00;;;3.60;99.90;;;;;;5013733;28;20670;-65
2022/12/07 05:54:08;;;;;;;1.10;0.67;;;3.60;99.90;;;;;;4990251;28;20225;-65
2022/12/07 05:56:35;;;;;;;2.87;0.80;;;3.70;99.90;;;;;;4996448;28;20224;-65
2022/12/07 06:01:48;;;;;;;1.37;1.00;;;3.70;99.90;;;;;;5018423;28;20573;-65
2022/12/07 06:04:14;;;;;;;1.30;0.47;;;3.70;99.90;;;;;;5016100;28;21026;-65
2022/12/07 06:06:41;;;;;;;1.80;0.97;;;3.80;99.90;;;;;;5003613;28;20225;-65
2022/12/07 06:09:08;;;;;;;2.03;0.77;;;3.80;99.90;;;;;;5001644;28;20225;-66
2022/12/07 06:14:19;;;;;;;0.90;0.73;;;3.90;99.90;;;;;;5012036;28;20641;-64
2022/12/07 06:16:47;;;;;;;2.70;0.80;;;3.80;99.90;;;;;;5025838;28;20741;-65
2022/12/07 06:19:14;;;;;;;1.60;0.93;;;3.80;99.90;;;;;;5023889;28;20235;-66
2022/12/07 06:21:41;;;;;;;2.50;0.70;;;3.70;99.90;;;;;;5011367;28;20225;-66
2022/12/07 06:24:11;;;;;;;0.73;0.67;;;3.70;99.90;;;;;;5011511;28;20237;-63
2022/12/07 06:26:37;;;;;;;3.67;1.07;;;3.60;99.90;;;;;;4996844;28;20217;-64
2022/12/07 06:29:04;;;;;;;1.63;0.93;;;3.50;99.90;;;;;;5025065;28;20198;-64
2022/12/07 06:31:31;;;;;;;1.33;0.83;;;3.60;99.90;;;;;;5008741;28;20556;-65
2022/12/07 06:34:00;;;;;;;3.13;1.10;;;3.50;99.90;;;;;;5022343;28;20205;-65
2022/12/07 06:36:27;;;;;;;3.17;0.90;;;3.50;99.90;;;;;;5018886;28;20323;-65
2022/12/07 06:38:54;;;;;;;5.40;0.97;;;3.50;99.90;;;;;;5011487;28;20216;-65
2022/12/07 06:41:21;;;;;;;2.33;0.70;;;5.10;99.90;;;;;;4981845;28;20229;-64
2022/12/07 06:43:48;;;;;;;2.77;0.87;;;3.60;99.90;;;;;;5019282;28;20204;-65
2022/12/07 06:46:15;;;;;;;6.13;0.80;;;3.60;99.90;;;;;;5009435;28;20205;-65
2022/12/07 06:48:42;;;;;;;6.57;0.80;;;3.70;99.90;;;;;;5024298;28;20773;-63
2022/12/07 06:51:11;;;;;;;3.53;0.90;;;3.60;99.90;;;;;;5017737;28;20195;-65
2022/12/07 06:53:38;;;;;;;4.37;0.50;;;3.60;99.90;;;;;;5018508;28;20207;-65
2022/12/07 06:56:06;;;;;;;5.10;1.27;;;3.50;99.90;;;;;;5008515;28;20201;-65
2022/12/07 06:58:32;;;;;;;2.67;1.00;;;3.50;99.90;;;;;;4997707;28;20210;-67
2022/12/07 07:00:59;;;;;;;1.47;0.80;;;3.50;99.90;;;;;;5014401;28;20220;-66
2022/12/07 07:03:26;;;;;;;1.70;0.40;;;3.40;99.90;;;;;;5016741;28;20474;-65
2022/12/07 07:05:53;;;;;;;0.57;0.53;;;3.40;99.90;;;;;;5024808;28;20232;-65
2022/12/07 07:08:21;;;;;;;1.47;0.70;;;3.30;99.90;;;;;;4973382;28;20228;-65
2022/12/07 07:10:48;;;;;;;1.60;0.83;;;3.30;99.90;;;;;;5000175;28;20702;-66
2022/12/07 07:13:15;;;;;;;1.90;0.77;;;3.30;99.90;;;;;;4986387;28;20233;-66
2022/12/07 07:15:42;;;;;;;1.33;0.63;;;3.40;99.90;;;;;;5011506;28;20308;-67
2022/12/07 07:18:10;;;;;;;3.93;0.87;;;3.40;99.90;;;;;;4999620;28;20233;-65
2022/12/07 07:20:39;;;;;;;1.40;0.70;;;3.30;99.90;;;;;;5013668;28;20226;-66
2022/12/07 07:23:05;;;;;;;2.20;1.20;;;3.30;99.90;;;;;;5005620;28;20243;-66
2022/12/07 07:25:34;;;;;;;4.77;0.90;;;3.40;99.90;;;;;;5002730;28;20565;-66
2022/12/07 07:28:00;;;;;;;1.00;0.60;;;3.40;99.90;;;;;;4993718;28;20223;-65
2022/12/07 07:30:28;;;;;;;5.03;1.33;;;3.40;99.90;;;;;;5024343;28;20229;-65
2022/12/07 07:32:57;;;;;;;1.50;0.90;;;3.40;99.90;;;;;;5014209;28;20761;-65
2022/12/07 07:35:25;;;;;;;3.20;0.60;;;3.40;99.90;;;;;;5023952;28;20192;-66
2022/12/07 07:37:52;;;;;;;2.37;0.83;;;3.40;99.90;;;;;;5014906;28;20225;-65
2022/12/07 07:40:19;;;;;;;5.30;1.07;;;3.40;99.90;;;;;;5018468;28;20224;-65
2022/12/07 07:42:48;;;;;;;3.93;1.30;;;3.40;99.90;;;;;;5007463;28;20226;-65
2022/12/07 07:45:16;;;;;;;2.43;0.70;;;3.30;99.90;;;;;;4988578;28;20260;-65
2022/12/07 07:47:42;;;;;;;7.70;0.97;;;3.30;99.90;;;;;;4998506;28;21150;-66
2022/12/07 07:50:10;;;;;;;2.83;0.70;;;3.30;99.90;;;;;;5020678;28;20201;-65
2022/12/07 07:52:37;;;;;;;4.50;1.70;;;3.40;99.90;;;;;;5023456;22;20325;-65
2022/12/07 07:55:05;;;;;;;1.10;0.80;;;3.40;99.90;;;;;;5023987;28;20515;-65
2022/12/07 07:57:31;;;;;;;3.63;1.13;;;3.40;99.90;;;;;;5023572;28;20207;-66
2022/12/07 08:00:00;;;;;;;4.20;2.03;;;3.40;99.90;;;;;;5013115;28;20228;-64
2022/12/07 08:02:29;;;;;;;2.00;1.20;;;3.40;99.90;;;;;;5037954;28;20221;-64
2022/12/07 08:04:56;;;;;;;4.23;1.43;;;3.40;99.90;;;;;;5027247;28;20225;-64
2022/12/07 08:07:23;;;;;;;1.50;1.00;;;3.40;99.90;;;;;;5026684;28;20228;-65
2022/12/07 08:09:49;;;;;;;1.90;1.60;;;3.40;99.90;;;;;;5030585;28;20228;-65
2022/12/07 08:12:16;;;;;;;2.83;1.30;;;3.70;99.90;;;;;;5037598;28;20597;-66
2022/12/07 08:14:43;;;;;;;2.83;1.40;;;3.50;99.90;;;;;;5029889;28;20696;-65
2022/12/07 08:17:12;;;;;;;3.13;1.53;;;3.50;99.90;;;;;;4987850;28;20232;-64
2022/12/07 08:19:39;;;;;;;2.33;0.80;;;3.80;99.90;;;;;;5018776;28;20274;-66
2022/12/07 08:22:06;;;;;;;3.50;0.80;;;3.40;99.90;;;;;;5025557;28;20224;-66
2022/12/07 08:24:34;;;;;;;1.57;0.80;;;3.50;99.90;;;;;;5038856;28;20239;-66
2022/12/07 08:27:01;;;;;;;2.73;1.07;;;3.50;99.90;;;;;;5028655;28;20455;-66
2022/12/07 08:29:28;;;;;;;1.50;0.57;;;3.50;99.90;;;;;;5017646;28;20605;-66
2022/12/07 08:31:55;;;;;;;4.73;0.90;;;3.50;99.90;;;;;;5008972;28;20217;-66
2022/12/07 08:34:23;;;;;;;7.07;1.00;;;3.50;99.90;;;;;;5030785;28;20239;-66
2022/12/07 08:36:50;;;;;;;4.13;1.00;;;3.50;99.90;;;;;;5024634;28;20220;-66
2022/12/07 08:39:17;;;;;;;5.73;1.60;;;3.50;99.90;;;;;;5087038;22;20323;-66
2022/12/07 08:41:43;;;;;;;1.70;1.07;;;3.80;99.90;;;;;;5044448;28;20231;-66
2022/12/07 08:44:10;;;;;;;2.90;0.90;;;3.70;99.90;;;;;;5034107;28;20212;-66
2022/12/07 08:46:41;;;;;;;2.13;0.73;;;3.80;99.90;;;;;;5054290;28;20227;-65
2022/12/07 08:51:45;;;;;;;2.43;0.77;;;3.80;99.90;;;;;;5029863;22;20232;-66
2022/12/07 08:54:17;;;;;;;3.03;0.70;;;3.70;99.90;;;;;;5003671;28;21021;-65
2022/12/07 09:00:01;;;;;;;4.53;0.77;;;3.90;99.90;;;;;;4995416;22;20246;-65
2022/12/07 09:02:28;;;;;;;2.37;0.70;;;3.90;99.90;;;;;;5016400;22;20259;-65
2022/12/07 09:04:55;;;;;;;2.13;1.50;;;4.00;99.90;;;;;;4995219;28;20239;-65
2022/12/07 09:07:23;;;;;;;1.40;1.20;;;4.00;99.90;;;;;;5022522;28;21551;-66
2022/12/07 09:09:50;;;;;;;3.67;1.30;;;4.10;99.90;;;;;;5015282;28;21020;-65
2022/12/07 09:12:17;;;;;;;4.30;1.10;;;4.10;99.90;;;;;;5022247;28;20208;-65
2022/12/07 09:14:44;;;;;;;2.70;1.37;;;4.10;99.90;;;;;;5023015;22;20232;-66
2022/12/07 09:17:13;;;;;;;2.63;2.23;;;4.10;99.90;;;;;;5045678;28;20204;-65
2022/12/07 09:19:41;;;;;;;4.17;1.90;;;4.20;99.90;;;;;;5008093;28;20223;-65
2022/12/07 09:22:08;;;;;;;3.40;1.27;;;;;;;;;;5027639;28;20224;-65
2022/12/07 09:24:36;;;;;;;4.17;1.60;;;4.20;99.90;;;;;;5022747;28;20231;-65
2022/12/07 09:27:03;;;;;;;3.73;1.20;;;4.20;99.90;;;;;;5016973;28;20224;-66
2022/12/07 09:29:30;;;;;;;3.83;1.20;;;4.10;99.90;;;;;;5037125;28;20200;-65
2022/12/07 09:31:56;;;;;;;1.60;1.00;;;4.20;99.90;;;;;;5012734;28;20220;-65
2022/12/07 09:34:23;;;;;;;3.00;1.60;;;4.20;99.90;;;;;;5003285;28;20290;-65
2022/12/07 09:36:50;;;;;;;1.77;0.93;;;4.20;99.90;;;;;;5038910;28;20253;-65
2022/12/07 09:39:17;;;;;;;3.97;1.30;;;4.20;99.90;;;;;;5010951;28;20242;-65
2022/12/07 09:41:46;;;;;;;1.87;1.60;;;4.20;99.90;;;;;;5032895;28;20211;-65
2022/12/07 09:44:18;;;;;;;5.37;1.97;;;4.30;99.90;;;;;;5017151;28;20954;-64
2022/12/07 09:46:46;;;;;;;5.27;1.83;;;4.40;99.90;;;;;;5008153;28;20221;-65
2022/12/07 09:49:17;;;;;;;2.10;1.10;;;4.50;99.90;;;;;;5042188;28;20205;-65
2022/12/07 09:51:45;;;;;;;1.80;1.40;;;4.50;99.90;;;;;;5004296;28;20200;-65
2022/12/07 09:54:14;;;;;;;3.33;1.10;;;4.50;99.90;;;;;;5029755;28;20435;-65
2022/12/07 09:56:41;;;;;;;3.93;1.47;;;4.50;99.90;;;;;;5021813;28;20210;-65
2022/12/07 09:59:17;;;;;;;8.77;1.70;;;4.50;99.90;;;;;;5039380;28;20211;-65
2022/12/07 10:01:49;;;;;;;3.33;1.37;;;4.50;99.90;;;;;;5023488;28;20618;-65
2022/12/07 10:04:19;;;;;;;3.00;1.20;;;4.50;99.90;;;;;;5045099;28;20198;-65
2022/12/07 10:06:47;;;;;;;2.27;1.37;;;4.50;99.90;;;;;;5009577;28;21355;-66
2022/12/07 10:09:16;;;;;;;8.40;1.30;;;4.50;99.90;;;;;;5029877;28;20256;-65
2022/12/07 10:12:02;;;;;;;2.13;1.00;;;4.60;99.90;;;;;;5020466;28;20545;-65
2022/12/07 10:14:33;;;;;;;5.00;1.33;;;4.50;99.90;;;;;;5039040;28;20235;-65
2022/12/07 10:16:59;;;;;;;2.20;1.10;;;4.50;99.90;;;;;;5014166;28;20453;-66
2022/12/07 10:19:28;;;;;;;7.80;1.50;;;4.50;99.90;;;;;;5036089;28;20292;-65
2022/12/07 10:22:15;;;;;;;5.77;1.30;;;4.50;99.90;;;;;;5007714;28;20589;-66
2022/12/07 10:24:43;;;;;;;7.33;1.60;;;4.50;99.90;;;;;;5020044;28;20205;-65
2022/12/07 10:27:21;;;;;;;5.57;1.20;;;4.50;99.90;;;;;;5041522;28;20217;-65
2022/12/07 10:29:52;;;;;;;4.47;1.20;;;4.60;99.90;;;;;;5017858;28;20207;-65
2022/12/07 10:32:34;;;;;;;3.50;1.20;;;4.50;99.90;;;;;;5025468;28;20221;-65
2022/12/07 10:35:23;;;;;;;3.73;1.97;;;4.60;99.90;;;;;;5032082;28;20211;-65
2022/12/07 10:37:52;;;;;;;7.63;1.57;;;4.60;99.90;;;;;;5009273;28;20205;-66
2022/12/07 10:40:31;;;;;;;2.97;1.50;;;4.60;99.90;;;;;;5028465;28;20216;-65
2022/12/07 10:43:07;;;;;;;5.47;1.30;;;4.60;99.90;;;;;;5039027;28;20231;-65
2022/12/07 10:45:42;;;;;;;7.83;1.50;;;4.50;99.90;;;;;;5029511;28;20269;-66
2022/12/07 10:48:15;;;;;;;2.57;1.13;;;4.50;99.90;;;;;;5026152;28;20208;-65
2022/12/07 10:50:58;;;;;;;3.00;1.17;;;4.50;99.90;;;;;;5025912;28;20206;-65
2022/12/07 10:53:40;;;;;;;3.97;1.20;;;4.50;99.90;;;;;;5001946;28;20235;-66
2022/12/07 10:56:36;;;;;;;5.70;1.57;;;4.50;99.90;;;;;;5023792;28;20243;-65
2022/12/07 10:59:20;;;;;;;5.70;1.17;;;4.40;99.90;;;;;;5039843;28;20197;-65
2022/12/07 11:01:55;;;;;;;2.33;0.80;;;4.40;99.90;;;;;;5018563;28;20700;-65
2022/12/07 11:04:30;;;;;;;3.10;1.13;;;4.40;99.90;;;;;;5024818;28;20204;-65
2022/12/07 11:07:02;;;;;;;3.87;1.17;;;4.40;99.90;;;;;;5041559;28;20559;-65
2022/12/07 11:09:50;;;;;;;7.83;1.40;;;4.50;99.90;;;;;;5008071;28;20204;-66
2022/12/07 11:12:26;;;;;;;2.50;1.07;;;4.50;99.90;;;;;;5012419;28;20225;-66
2022/12/07 11:14:59;;;;;;;5.37;1.10;;;4.60;99.90;;;;;;5027750;28;20227;-66
2022/12/07 11:17:37;;;;;;;3.97;1.40;;;4.70;99.90;;;;;;4992749;28;20424;-65
2022/12/07 11:20:18;;;;;;;3.80;0.90;;;6.10;99.90;;;;;;5031580;28;20693;-66
2022/12/07 11:22:52;;;;;;;3.47;1.10;;;4.70;99.90;;;;;;5037459;28;20207;-66
2022/12/07 11:25:26;;;;;;;3.37;0.90;;;4.80;99.90;;;;;;5009496;28;20767;-65
2022/12/07 11:28:12;;;;;;;4.07;0.93;;;4.80;99.90;;;;;;5025713;28;20205;-66
2022/12/07 11:30:49;;;;;;;3.40;1.13;;;4.90;99.90;;;;;;5039867;28;20228;-65
2022/12/07 11:33:22;;;;;;;4.73;1.07;;;5.00;99.90;;;;;;5013460;28;20696;-65
2022/12/07 11:36:00;;;;;;;8.40;1.30;;;5.00;99.90;;;;;;5034259;28;20567;-66
2022/12/07 11:38:36;;;;;;;7.73;1.00;;;5.00;99.90;;;;;;5031826;28;20324;-65
2022/12/07 11:41:13;;;;;;;2.03;1.13;;;5.10;99.90;;;;;;5010667;28;20212;-65
2022/12/07 11:43:59;;;;;;;2.37;1.00;;;5.00;99.90;;;;;;5022480;28;20243;-65
2022/12/07 11:46:30;;;;;;;1.77;1.00;;;5.10;99.90;;;;;;5033055;28;20346;-64
2022/12/07 11:49:09;;;;;;;4.83;1.33;;;5.10;99.90;;;;;;4996608;28;20225;-65
2022/12/07 11:51:42;;;;;;;6.80;1.00;;;5.10;99.90;;;;;;5034023;28;20406;-65
2022/12/07 11:54:15;;;;;;;4.43;1.13;;;5.10;99.90;;;;;;5032686;28;20232;-65
2022/12/07 11:56:42;;;;;;;1.53;0.70;;;5.10;99.90;;;;;;5015378;28;20709;-66
2022/12/07 11:59:14;;;;;;;5.17;0.90;;;5.10;99.90;;;;;;5005665;28;25752;-64
2022/12/07 12:01:53;;;;;;;0.67;0.67;;;5.10;99.90;;;;;;5038489;28;20710;-65
2022/12/07 12:04:45;;;;;;;2.83;0.90;;;5.10;99.90;;;;;;5003716;28;20220;-65
2022/12/07 12:07:16;;;;;;;2.93;0.80;;;5.10;99.90;;;;;;5038862;28;20235;-66
2022/12/07 12:09:50;;;;;;;5.00;0.83;;;4.80;99.90;;;;;;5038992;28;20227;-66
2022/12/07 12:12:50;;;;;;;2.40;0.90;;;4.60;99.90;;;;;;5005110;28;20801;-65
2022/12/07 12:15:30;;;;;;;1.97;0.50;;;4.50;99.90;;;;;;5009868;28;20227;-65
2022/12/07 12:18:18;;;;;;;3.13;0.53;;;4.70;99.90;;;;;;5025734;28;20249;-66
2022/12/07 12:20:51;;;;;;;1.47;0.63;;;4.50;99.90;;;;;;5022338;28;22245;-66
2022/12/07 12:23:22;;;;;;;6.37;1.20;;;4.50;99.90;;;;;;5041193;28;20749;-66
2022/12/07 12:25:51;;;;;;;2.63;0.77;;;4.50;99.90;;;;;;5035198;28;20916;-66
2022/12/07 12:28:27;;;;;;;1.63;1.00;;;4.50;99.90;;;;;;5004043;28;20232;-65
2022/12/07 12:31:13;;;;;;;2.27;0.90;;;4.50;99.90;;;;;;5024854;28;20789;-65
2022/12/07 12:33:45;;;;;;;2.47;0.90;;;4.50;99.90;;;;;;5021374;28;20986;-65
2022/12/07 12:36:23;;;;;;;4.63;1.30;;;4.60;99.90;;;;;;5029185;28;20212;-66
2022/12/07 12:38:53;;;;;;;4.17;1.17;;;4.70;99.90;;;;;;5032210;28;20413;-64
2022/12/07 12:42:07;;;;;;;2.40;0.90;;;4.70;99.90;;;;;;5039898;28;20423;-65
2022/12/07 12:44:55;;;;;;;1.73;1.00;;;4.80;99.90;;;;;;4994311;28;20371;-65
2022/12/07 12:47:42;;;;;;;5.90;1.20;;;4.80;99.90;;;;;;5018550;28;20229;-65
2022/12/07 12:50:19;;;;;;;3.03;1.30;;;4.80;99.90;;;;;;5040322;28;20201;-65
2022/12/07 12:53:03;;;;;;;4.50;0.90;;;4.90;99.90;;;;;;5018365;28;20237;-64
2022/12/07 12:56:09;;;;;;;5.47;1.00;;;4.90;99.90;;;;;;5044322;28;20196;-65
2022/12/07 12:58:43;;;;;;;2.37;0.77;;;4.80;99.90;;;;;;5011975;28;20205;-65
2022/12/07 13:01:40;;;;;;;1.50;0.70;;;4.80;99.90;;;;;;5025581;28;20402;-66
2022/12/07 13:04:25;;;;;;;4.33;0.80;;;4.80;99.90;;;;;;5030001;28;20789;-65
2022/12/07 13:06:52;;;;;;;1.83;0.70;;;4.60;99.90;;;;;;5029998;28;20224;-66
2022/12/07 13:09:23;;;;;;;4.00;0.60;;;4.60;99.90;;;;;;5040744;28;20277;-66
2022/12/07 13:11:57;;;;;;;3.10;0.97;;;4.60;99.90;;;;;;5038464;28;20207;-66
2022/12/07 13:14:44;;;;;;;1.13;0.70;;;4.60;99.90;;;;;;5008441;28;20233;-65
2022/12/07 13:17:12;;;;;;;1.17;0.80;;;4.50;99.90;;;;;;5042926;28;20197;-66
2022/12/07 13:20:01;;;;;;;0.93;0.53;;;4.50;99.90;;;;;;5028088;28;20228;-66
2022/12/07 13:22:52;;;;;;;9.10;0.87;;;4.40;99.90;;;;;;5016463;28;20239;-66
2022/12/07 13:25:37;;;;;;;3.30;1.07;;;4.40;99.90;;;;;;5031965;28;20728;-66
2022/12/07 13:28:13;;;;;;;3.27;0.97;;;4.40;99.90;;;;;;5023973;28;20215;-66
2022/12/07 13:30:47;;;;;;;2.50;1.00;;;4.30;99.90;;;;;;4993939;28;20795;-66